createdAt,value
2019-05-19T00:02:19.716Z,51.53
2019-05-19T00:07:26.473Z,50.43
2019-05-19T00:12:33.003Z,49.17
2019-05-19T00:17:43.296Z,53.10
2019-05-19T00:22:49.169Z,50.47
2019-05-19T00:27:55.001Z,49.13
2019-05-19T00:33:02.266Z,50.10
2019-05-19T00:38:14.592Z,52.27
2019-05-19T00:43:20.783Z,42.77
2019-05-19T00:48:31.362Z,47.50
2019-05-19T00:53:40.449Z,45.40
2019-05-19T00:58:54.407Z,51.53
2019-05-19T01:04:02.843Z,52.50
2019-05-19T01:09:11.748Z,40.10
2019-05-19T01:14:22.183Z,42.70
2019-05-19T01:19:29.875Z,43.17
2019-05-19T01:24:41.309Z,43.43
2019-05-19T01:29:50.279Z,44.53
2019-05-19T01:35:01.900Z,55.20
2019-05-19T01:40:07.252Z,48.43
2019-05-19T01:45:21.333Z,53.60
2019-05-19T01:50:27.210Z,51.77
2019-05-19T01:55:36.320Z,55.27
2019-05-19T02:00:45.793Z,53.17
2019-05-19T02:05:53.880Z,49.63
2019-05-19T02:11:02.505Z,43.37
2019-05-19T02:16:10.116Z,56.83
2019-05-19T02:21:25.704Z,60.40
2019-05-19T02:26:59.448Z,56.10
2019-05-19T02:32:04.446Z,50.37
2019-05-19T02:37:32.100Z,56.87
2019-05-19T02:42:46.044Z,59.80
2019-05-19T02:48:06.358Z,67.23
2019-05-19T02:53:18.326Z,64.60
2019-05-19T02:58:28.386Z,60.37
2019-05-19T03:03:36.340Z,56.63
2019-05-19T03:08:52.199Z,63.00
2019-05-19T03:14:03.063Z,58.63
2019-05-19T03:19:10.306Z,61.97
2019-05-19T03:24:20.813Z,64.50
2019-05-19T03:29:36.001Z,64.17
2019-05-19T03:34:45.337Z,53.37
2019-05-19T03:39:56.176Z,54.63
2019-05-19T03:45:02.894Z,59.17
2019-05-19T03:50:11.780Z,60.77
2019-05-19T03:55:30.285Z,58.07
2019-05-19T04:01:00.415Z,60.30
2019-05-19T04:06:10.253Z,60.40
2019-05-19T04:11:20.548Z,59.33
2019-05-19T04:16:39.887Z,61.70
2019-05-19T04:21:49.159Z,71.80
2019-05-19T04:26:59.021Z,55.43
2019-05-19T04:32:05.422Z,59.43
2019-05-19T04:37:15.926Z,60.03
2019-05-19T04:42:25.790Z,59.57
2019-05-19T04:47:42.467Z,57.70
2019-05-19T04:52:55.188Z,55.00
2019-05-19T04:58:33.606Z,55.20
2019-05-19T05:03:54.083Z,50.67
2019-05-19T05:09:02.177Z,53.93
2019-05-19T05:14:16.806Z,48.47
2019-05-19T05:19:29.188Z,52.43
2019-05-19T05:24:37.297Z,49.07
2019-05-19T05:29:46.597Z,50.30
2019-05-19T05:35:01.413Z,40.37
2019-05-19T05:40:14.199Z,48.90
2019-05-19T05:45:23.173Z,47.90
2019-05-19T05:50:30.094Z,41.93
2019-05-19T05:55:38.471Z,48.93
2019-05-19T06:00:47.467Z,48.57
2019-05-19T06:05:58.573Z,47.20
2019-05-19T06:11:12.593Z,44.73
2019-05-19T06:16:22.441Z,42.43
2019-05-19T06:21:28.484Z,38.80
2019-05-19T06:26:40.091Z,43.30
2019-05-19T06:31:49.039Z,39.93
2019-05-19T06:36:59.864Z,42.40
2019-05-19T06:42:11.117Z,39.70
2019-05-19T06:47:22.222Z,41.70
2019-05-19T06:52:33.525Z,38.80
2019-05-19T06:57:42.485Z,38.17
2019-05-19T07:02:52.193Z,38.67
2019-05-19T07:08:03.876Z,39.10
2019-05-19T07:13:13.517Z,36.70
2019-05-19T07:18:21.572Z,36.70
2019-05-19T07:23:51.854Z,34.08
2019-05-19T07:29:02.822Z,33.35
2019-05-19T07:34:08.343Z,34.67
2019-05-19T07:39:14.560Z,32.50
2019-05-19T07:44:22.909Z,32.40
2019-05-19T07:49:35.401Z,30.20
2019-05-19T07:54:48.994Z,30.62
2019-05-19T07:59:58.425Z,29.32
2019-05-19T08:05:08.337Z,30.43
2019-05-19T08:10:19.455Z,28.05
2019-05-19T08:15:46.542Z,30.15
2019-05-19T08:21:15.935Z,26.60
2019-05-19T08:26:27.076Z,27.55
2019-05-19T08:31:36.285Z,24.35
2019-05-19T08:36:52.272Z,24.70
2019-05-19T08:42:01.043Z,25.23
2019-05-19T08:47:11.497Z,19.67
2019-05-19T08:52:25.814Z,19.10
2019-05-19T08:57:39.591Z,24.00
2019-05-19T09:02:51.524Z,23.07
2019-05-19T09:07:59.800Z,16.55
2019-05-19T09:13:12.517Z,15.13
2019-05-19T09:18:22.024Z,18.65
2019-05-19T09:23:34.699Z,19.87
2019-05-19T09:28:48.081Z,16.20
2019-05-19T09:34:01.963Z,14.30
2019-05-19T09:39:15.344Z,13.72
2019-05-19T09:44:28.778Z,13.15
2019-05-19T09:49:38.781Z,12.40
2019-05-19T09:54:48.249Z,11.43
2019-05-19T10:00:05.665Z,12.20
2019-05-19T10:05:15.841Z,12.33
2019-05-19T10:11:11.850Z,10.63
2019-05-19T10:16:19.687Z,10.25
2019-05-19T10:21:36.119Z,9.50
2019-05-19T10:27:07.543Z,8.93
2019-05-19T10:32:17.408Z,7.65
2019-05-19T10:37:28.064Z,5.40
2019-05-19T10:42:44.573Z,5.70
2019-05-19T10:47:53.505Z,7.42
2019-05-19T10:53:01.901Z,6.70
2019-05-19T10:58:09.884Z,5.85
2019-05-19T11:03:21.606Z,6.55
2019-05-19T11:08:33.654Z,6.70
2019-05-19T11:13:50.444Z,6.65
2019-05-19T11:19:02.862Z,6.90
2019-05-19T11:24:14.240Z,6.20
2019-05-19T11:29:27.147Z,6.60
2019-05-19T11:34:35.448Z,7.45
2019-05-19T11:39:50.602Z,7.28
2019-05-19T11:44:57.937Z,7.65
2019-05-19T11:50:06.589Z,7.75
2019-05-19T11:55:21.120Z,8.10
2019-05-19T12:00:33.668Z,7.22
2019-05-19T12:05:46.577Z,5.95
2019-05-19T12:11:17.960Z,6.50
2019-05-19T12:16:32.256Z,5.50
2019-05-19T12:21:45.111Z,5.67
2019-05-19T12:27:16.227Z,6.22
2019-05-19T12:32:27.422Z,5.83
2019-05-19T12:37:36.781Z,5.67
2019-05-19T12:42:51.434Z,6.72
2019-05-19T12:48:00.641Z,6.65
2019-05-19T12:53:11.724Z,6.53
2019-05-19T12:58:34.777Z,6.28
2019-05-19T13:03:46.431Z,6.15
2019-05-19T13:09:00.927Z,4.97
2019-05-19T13:14:25.775Z,7.47
2019-05-19T13:19:36.495Z,6.75
2019-05-19T13:25:06.442Z,6.20
2019-05-19T13:30:17.510Z,5.62
2019-05-19T13:35:25.956Z,5.42
2019-05-19T13:40:37.063Z,5.97
2019-05-19T13:45:46.908Z,5.30
2019-05-19T13:50:55.139Z,6.22
2019-05-19T13:56:14.591Z,8.03
2019-05-19T14:01:28.565Z,8.35
2019-05-19T14:06:36.036Z,9.28
2019-05-19T14:11:57.762Z,18.05
2019-05-19T14:17:11.568Z,23.65
2019-05-19T14:22:22.953Z,18.75
2019-05-19T14:27:33.474Z,15.25
2019-05-19T14:32:43.784Z,16.82
2019-05-19T14:37:54.451Z,20.25
2019-05-19T14:43:05.799Z,22.05
2019-05-19T14:48:12.776Z,21.95
2019-05-19T14:53:28.646Z,23.30
2019-05-19T14:58:39.267Z,26.82
2019-05-19T15:03:49.637Z,29.12
2019-05-19T15:09:21.604Z,32.42
2019-05-19T15:14:29.862Z,34.88
2019-05-19T15:19:42.041Z,33.28
2019-05-19T15:25:12.837Z,34.40
2019-05-19T15:30:28.971Z,33.67
2019-05-19T15:35:40.048Z,35.88
2019-05-19T15:41:30.081Z,36.70
2019-05-19T15:46:41.854Z,34.88
2019-05-19T15:52:01.895Z,34.90
2019-05-19T15:57:12.306Z,35.65
2019-05-19T16:02:27.214Z,32.08
2019-05-19T16:07:47.470Z,35.15
2019-05-19T16:12:59.141Z,37.67
2019-05-19T16:18:08.983Z,36.45
2019-05-19T16:23:19.449Z,37.55
2019-05-19T16:28:32.486Z,39.53
2019-05-19T16:34:12.800Z,37.38
2019-05-19T16:39:23.622Z,33.92
2019-05-19T16:44:30.627Z,34.25
2019-05-19T16:49:40.495Z,36.85
2019-05-19T16:54:52.902Z,38.02
2019-05-19T17:00:11.372Z,41.13
2019-05-19T17:05:41.644Z,33.98
2019-05-19T17:10:50.025Z,36.23
2019-05-19T17:15:59.980Z,35.88
2019-05-19T17:21:13.560Z,35.35
2019-05-19T17:26:23.433Z,7.35
2019-05-19T17:31:36.099Z,7.00
2019-05-19T17:36:45.212Z,5.15
2019-05-19T17:41:58.221Z,5.97
2019-05-19T17:47:06.428Z,6.05
2019-05-19T17:52:21.889Z,7.30
2019-05-19T17:57:33.675Z,7.15
2019-05-19T18:03:05.962Z,6.08
2019-05-19T18:08:18.058Z,6.05
2019-05-19T18:13:33.401Z,6.03
2019-05-19T18:18:43.140Z,5.92
2019-05-19T18:23:52.411Z,6.53
2019-05-19T18:29:04.948Z,6.97
2019-05-19T18:34:17.592Z,6.37
2019-05-19T18:39:24.064Z,6.97
2019-05-19T18:44:36.245Z,7.42
2019-05-19T18:49:56.586Z,7.72
2019-05-19T18:55:05.033Z,8.98
2019-05-19T19:00:14.986Z,10.18
2019-05-19T19:05:25.162Z,9.60
2019-05-19T19:10:38.051Z,11.83
2019-05-19T19:16:07.011Z,11.80
2019-05-19T19:21:14.756Z,19.20
2019-05-19T19:26:36.182Z,33.70
2019-05-19T19:31:49.072Z,41.30
2019-05-19T19:37:04.667Z,48.47
2019-05-19T19:42:16.971Z,46.27
2019-05-19T19:47:26.997Z,39.93
2019-05-19T19:52:51.594Z,41.47
2019-05-19T19:58:04.208Z,33.87
2019-05-19T20:03:12.246Z,33.13
2019-05-19T20:08:19.258Z,24.53
2019-05-19T20:13:25.324Z,28.70
2019-05-19T20:18:36.524Z,20.37
2019-05-19T20:23:46.359Z,12.07
2019-05-19T20:28:59.007Z,9.53
2019-05-19T20:34:07.406Z,10.30
2019-05-19T20:39:18.330Z,10.97
2019-05-19T20:44:30.801Z,11.27
2019-05-19T20:49:40.450Z,11.27
2019-05-19T20:54:53.763Z,9.97
2019-05-19T21:00:05.035Z,8.67
2019-05-19T21:05:17.825Z,9.13
2019-05-19T21:10:29.625Z,13.43
2019-05-19T21:15:38.374Z,11.70
2019-05-19T21:20:49.933Z,11.50
2019-05-19T21:26:31.073Z,8.93
2019-05-19T21:31:41.576Z,14.80
2019-05-19T21:36:56.210Z,20.00
2019-05-19T21:42:07.185Z,11.70
2019-05-19T21:47:39.620Z,11.83
2019-05-19T21:52:59.892Z,20.40
2019-05-19T21:58:13.537Z,26.27
2019-05-19T22:03:23.291Z,27.63
2019-05-19T22:08:34.746Z,24.67
2019-05-19T22:14:04.475Z,29.47
2019-05-19T22:19:16.805Z,27.77
2019-05-19T22:24:28.594Z,31.50
2019-05-19T22:29:41.421Z,26.30
2019-05-19T22:34:50.385Z,25.53
2019-05-19T22:40:02.593Z,28.43
2019-05-19T22:45:13.964Z,25.63
2019-05-19T22:50:36.696Z,26.57
2019-05-19T22:55:47.086Z,23.40
2019-05-19T23:00:58.923Z,25.43
2019-05-19T23:06:08.746Z,28.00
2019-05-19T23:11:19.384Z,33.13
2019-05-19T23:16:28.966Z,24.57
2019-05-19T23:21:42.442Z,29.17
2019-05-19T23:26:53.577Z,25.47
2019-05-19T23:32:07.264Z,26.97
2019-05-19T23:37:19.908Z,22.20
2019-05-19T23:42:29.605Z,27.23
2019-05-19T23:47:37.173Z,27.20
2019-05-19T23:52:47.370Z,25.80
2019-05-19T23:57:58.908Z,27.07
